createdAt,value
2022-11-01T00:01:57.975Z,100489.19
2022-11-01T00:04:26.346Z,100491.72
2022-11-01T00:06:53.867Z,100494.53
2022-11-01T00:09:22.033Z,100491.72
2022-11-01T00:11:49.697Z,100491.56
2022-11-01T00:14:20.514Z,100486.09
2022-11-01T00:16:48.339Z,100496.59
2022-11-01T00:19:17.581Z,100492.09
2022-11-01T00:21:45.542Z,100490.00
2022-11-01T00:24:13.123Z,100496.72
2022-11-01T00:26:40.781Z,100499.22
2022-11-01T00:29:08.352Z,100505.09
2022-11-01T00:31:36.208Z,100498.63
2022-11-01T00:34:06.017Z,100500.31
2022-11-01T00:36:35.783Z,100499.00
2022-11-01T00:39:03.895Z,100495.22
2022-11-01T00:41:31.440Z,100499.38
2022-11-01T00:43:59.128Z,100493.59
2022-11-01T00:46:26.673Z,100483.50
2022-11-01T00:48:54.247Z,100479.66
2022-11-01T00:51:21.795Z,100472.22
2022-11-01T00:53:50.789Z,100477.22
2022-11-01T00:56:18.588Z,100461.75
2022-11-01T00:58:46.120Z,100459.59
2022-11-01T01:01:13.792Z,100453.97
2022-11-01T01:03:41.435Z,100449.03
2022-11-01T01:06:09.054Z,100447.69
2022-11-01T01:08:36.650Z,100443.91
2022-11-01T01:11:05.868Z,100433.59
2022-11-01T01:13:33.418Z,100432.44
2022-11-01T01:16:01.104Z,100431.31
2022-11-01T01:18:28.712Z,100430.16
2022-11-01T01:21:01.416Z,100422.81
2022-11-01T01:23:29.049Z,100417.19
2022-11-01T01:25:56.630Z,100413.34
2022-11-01T01:28:25.602Z,100408.72
2022-11-01T01:30:53.172Z,100425.38
2022-11-01T01:33:20.927Z,100429.56
2022-11-01T01:35:48.441Z,100422.09
2022-11-01T01:38:16.078Z,100414.63
2022-11-01T01:40:44.776Z,100398.94
2022-11-01T01:43:11.656Z,100395.13
2022-11-01T01:45:42.087Z,100389.31
2022-11-01T01:48:18.071Z,100398.00
2022-11-01T01:50:53.220Z,100395.84
2022-11-01T01:53:27.406Z,100404.06
2022-11-01T01:55:59.741Z,100400.03
2022-11-01T01:58:31.650Z,100408.28
2022-11-01T02:01:00.588Z,100405.63
2022-11-01T02:03:31.028Z,100403.78
2022-11-01T02:06:01.729Z,100400.84
2022-11-01T02:08:30.235Z,100396.00
2022-11-01T02:11:00.609Z,100388.63
2022-11-01T02:13:28.976Z,100388.34
2022-11-01T02:16:24.034Z,100384.19
2022-11-01T02:19:04.810Z,100373.31
2022-11-01T02:21:57.297Z,100368.31
2022-11-01T02:25:01.311Z,100375.03
2022-11-01T02:27:39.667Z,100381.88
2022-11-01T02:30:14.375Z,100372.53
2022-11-01T02:33:13.580Z,100372.03
2022-11-01T02:35:48.275Z,100369.84
2022-11-01T02:38:25.995Z,100367.88
2022-11-01T02:41:03.024Z,100368.53
2022-11-01T02:43:36.041Z,100372.69
2022-11-01T02:46:20.559Z,100369.06
2022-11-01T02:48:50.351Z,100377.72
2022-11-01T02:51:20.921Z,100384.25
2022-11-01T02:53:48.464Z,100381.41
2022-11-01T02:56:17.363Z,100383.59
2022-11-01T02:58:47.401Z,100384.94
2022-11-01T03:01:23.408Z,100380.91
2022-11-01T03:03:54.582Z,100372.91
2022-11-01T03:06:26.122Z,100377.06
2022-11-01T03:08:59.049Z,100379.22
2022-11-01T03:11:34.088Z,100384.91
2022-11-01T03:14:08.173Z,100375.38
2022-11-01T03:16:37.937Z,100380.91
2022-11-01T03:19:24.552Z,100378.19
2022-11-01T03:22:00.837Z,100379.25
2022-11-01T03:24:32.425Z,100383.41
2022-11-01T03:27:03.942Z,100384.75
2022-11-01T03:29:33.927Z,100375.19
2022-11-01T03:32:03.060Z,100376.69
2022-11-01T03:34:33.818Z,100377.34
2022-11-01T03:37:06.788Z,100384.38
2022-11-01T03:39:38.868Z,100388.56
2022-11-01T03:42:08.584Z,100378.16
2022-11-01T03:44:43.152Z,100384.16
2022-11-01T03:47:11.809Z,100389.38
2022-11-01T03:49:40.674Z,100387.34
2022-11-01T03:52:09.696Z,100389.53
2022-11-01T03:54:37.409Z,100390.81
2022-11-01T03:57:05.187Z,100401.38
2022-11-01T03:59:32.732Z,100398.72
2022-11-01T04:02:00.541Z,100409.44
2022-11-01T04:04:28.264Z,100404.06
2022-11-01T04:06:57.178Z,100405.56
2022-11-01T04:09:24.711Z,100408.75
2022-11-01T04:11:52.569Z,100412.91
2022-11-01T04:14:37.826Z,100418.91
2022-11-01T04:17:22.360Z,100415.06
2022-11-01T04:20:07.486Z,100419.09
2022-11-01T04:22:38.584Z,100414.38
2022-11-01T04:25:06.477Z,100417.69
2022-11-01T04:27:34.059Z,100419.22
2022-11-01T04:30:01.614Z,100428.41
2022-11-01T04:32:29.175Z,100428.03
2022-11-01T04:34:56.757Z,100439.41
2022-11-01T04:37:24.625Z,100442.59
2022-11-01T04:39:53.529Z,100428.81
2022-11-01T04:42:21.103Z,100436.34
2022-11-01T04:44:49.418Z,100425.47
2022-11-01T04:47:17.036Z,100437.50
2022-11-01T04:49:44.555Z,100431.13
2022-11-01T04:52:12.089Z,100430.97
2022-11-01T04:54:39.625Z,100437.47
2022-11-01T04:57:22.518Z,100440.31
2022-11-01T04:59:50.291Z,100439.28
2022-11-01T05:02:17.915Z,100442.16
2022-11-01T05:04:45.789Z,100432.44
2022-11-01T05:07:13.564Z,100442.16
2022-11-01T05:09:41.331Z,100429.56
2022-11-01T05:12:10.417Z,100436.91
2022-11-01T05:14:38.053Z,100441.28
2022-11-01T05:17:05.577Z,100440.09
2022-11-01T05:19:33.135Z,100446.31
2022-11-01T05:22:00.644Z,100441.41
2022-11-01T05:24:28.229Z,100449.13
2022-11-01T05:26:55.777Z,100445.41
2022-11-01T05:29:32.644Z,100444.03
2022-11-01T05:32:01.938Z,100452.94
2022-11-01T05:34:29.492Z,100457.28
2022-11-01T05:36:57.056Z,100453.78
2022-11-01T05:39:24.837Z,100461.63
2022-11-01T05:41:53.768Z,100463.13
2022-11-01T05:44:24.560Z,100464.97
2022-11-01T05:46:52.113Z,100464.97
2022-11-01T05:49:19.639Z,100469.50
2022-11-01T05:51:47.275Z,100488.28
2022-11-01T05:54:14.878Z,100483.59
2022-11-01T05:56:42.650Z,100487.25
2022-11-01T05:59:10.159Z,100485.78
2022-11-01T06:01:39.165Z,100495.31
2022-11-01T06:04:06.841Z,100500.97
2022-11-01T06:06:34.767Z,100506.84
2022-11-01T06:09:03.045Z,100512.84
2022-11-01T06:11:30.645Z,100507.16
2022-11-01T06:13:59.082Z,100512.66
2022-11-01T06:16:27.639Z,100516.69
2022-11-01T06:18:56.569Z,100514.84
2022-11-01T06:21:27.617Z,100527.22
2022-11-01T06:23:57.807Z,100527.22
2022-11-01T06:26:25.405Z,100530.22
2022-11-01T06:28:53.338Z,100534.56
2022-11-01T06:31:22.033Z,100539.91
2022-11-01T06:33:50.133Z,100545.16
2022-11-01T06:36:18.999Z,100553.34
2022-11-01T06:38:46.701Z,100565.09
2022-11-01T06:41:15.103Z,100553.97
2022-11-01T06:43:42.843Z,100555.53
2022-11-01T06:46:10.384Z,100566.06
2022-11-01T06:48:37.909Z,100570.13
2022-11-01T06:51:06.179Z,100572.81
2022-11-01T06:53:35.148Z,100584.03
2022-11-01T06:56:02.869Z,100596.63
2022-11-01T06:58:30.452Z,100604.31
2022-11-01T07:00:58.037Z,100611.69
2022-11-01T07:03:25.616Z,100616.06
2022-11-01T07:05:53.231Z,100610.72
2022-11-01T07:08:21.126Z,100616.41
2022-11-01T07:10:51.578Z,100627.34
2022-11-01T07:13:19.159Z,100634.69
2022-11-01T07:15:46.754Z,100639.09
2022-11-01T07:18:14.328Z,100629.34
2022-11-01T07:23:14.334Z,100650.34
2022-11-01T07:25:42.098Z,100651.50
2022-11-01T07:28:11.690Z,100652.03
2022-11-01T07:30:39.629Z,100652.03
2022-11-01T07:33:07.390Z,100667.47
2022-11-01T07:35:35.610Z,100676.06
2022-11-01T07:38:06.449Z,100680.06
2022-11-01T07:40:39.204Z,100686.44
2022-11-01T07:43:07.747Z,100698.72
2022-11-01T07:45:37.171Z,100709.25
2022-11-01T07:48:06.846Z,100720.00
2022-11-01T07:50:35.021Z,100718.97
2022-11-01T07:53:03.868Z,100728.06
2022-11-01T07:55:31.811Z,100734.94
2022-11-01T07:57:59.455Z,100737.25
2022-11-01T08:00:27.807Z,100747.31
2022-11-01T08:03:02.718Z,100756.69
2022-11-01T08:05:30.997Z,100762.72
2022-11-01T08:07:58.714Z,100763.38
2022-11-01T08:10:27.100Z,100760.72
2022-11-01T08:13:01.205Z,100771.91
2022-11-01T08:15:28.941Z,100773.28
2022-11-01T08:17:57.565Z,100778.44
2022-11-01T08:20:27.656Z,100776.75
2022-11-01T08:22:55.825Z,100788.63
2022-11-01T08:25:23.957Z,100777.91
2022-11-01T08:27:51.807Z,100782.94
2022-11-01T08:30:20.718Z,100784.44
2022-11-01T08:32:48.313Z,100784.75
2022-11-01T08:35:16.080Z,100788.59
2022-11-01T08:37:52.288Z,100793.66
2022-11-01T08:40:20.694Z,100807.19
2022-11-01T08:42:48.704Z,100799.50
2022-11-01T08:45:16.743Z,100803.69
2022-11-01T08:47:45.175Z,100800.69
2022-11-01T08:50:15.858Z,100818.59
2022-11-01T08:52:43.809Z,100806.88
2022-11-01T08:55:12.883Z,100812.25
2022-11-01T08:57:40.448Z,100819.28
2022-11-01T09:00:10.009Z,100823.44
2022-11-01T09:02:37.751Z,100831.00
2022-11-01T09:05:06.945Z,100824.81
2022-11-01T09:07:35.030Z,100835.03
2022-11-01T09:10:02.681Z,100833.03
2022-11-01T09:12:32.005Z,100845.75
2022-11-01T09:14:59.643Z,100857.16
2022-11-01T09:17:27.411Z,100859.34
2022-11-01T09:19:55.085Z,100857.69
2022-11-01T09:22:23.178Z,100865.59
2022-11-01T09:24:51.462Z,100867.28
2022-11-01T09:27:18.997Z,100876.31
2022-11-01T09:29:51.029Z,100878.00
2022-11-01T09:32:21.601Z,100878.53
2022-11-01T09:34:49.967Z,100872.66
2022-11-01T09:37:17.799Z,100888.09
2022-11-01T09:39:45.325Z,100886.28
2022-11-01T09:42:20.565Z,100886.16
2022-11-01T09:44:53.393Z,100882.13
2022-11-01T09:47:24.105Z,100886.50
2022-11-01T09:49:57.546Z,100883.97
2022-11-01T09:52:26.274Z,100883.13
2022-11-01T09:54:54.122Z,100878.44
2022-11-01T09:57:27.129Z,100874.25
2022-11-01T10:00:04.934Z,100885.50
2022-11-01T10:02:56.963Z,100896.88
2022-11-01T10:05:34.269Z,100887.66
2022-11-01T10:08:10.674Z,100897.56
2022-11-01T10:10:44.753Z,100905.28
2022-11-01T10:13:25.440Z,100895.72
2022-11-01T10:16:02.363Z,100902.25
2022-11-01T10:18:32.368Z,100908.28
2022-11-01T10:21:03.547Z,100908.13
2022-11-01T10:23:42.829Z,100919.69
2022-11-01T10:26:16.446Z,100918.81
2022-11-01T10:28:53.078Z,100918.66
2022-11-01T10:31:25.596Z,100920.53
2022-11-01T10:33:59.937Z,100919.50
2022-11-01T10:36:33.337Z,100920.00
2022-11-01T10:42:09.776Z,100928.03
2022-11-01T10:44:41.227Z,100926.38
2022-11-01T10:47:19.383Z,100916.97
2022-11-01T10:50:05.358Z,100917.84
2022-11-01T10:52:53.893Z,100919.34
2022-11-01T10:55:27.637Z,100921.84
2022-11-01T10:57:58.700Z,100921.38
2022-11-01T11:00:26.412Z,100920.38
2022-11-01T11:02:58.531Z,100927.41
2022-11-01T11:05:29.034Z,100927.22
2022-11-01T11:07:57.006Z,100916.00
2022-11-01T11:10:27.572Z,100917.69
2022-11-01T11:12:59.070Z,100925.75
2022-11-01T11:15:36.770Z,100916.66
2022-11-01T11:18:14.583Z,100921.22
2022-11-01T11:20:42.341Z,100921.03
2022-11-01T11:23:12.637Z,100915.31
2022-11-01T11:25:41.530Z,100919.84
2022-11-01T11:28:25.448Z,100929.09
2022-11-01T11:30:53.815Z,100919.84
2022-11-01T11:33:23.590Z,100933.63
2022-11-01T11:35:57.098Z,100932.25
2022-11-01T11:38:43.265Z,100934.78
2022-11-01T11:41:12.924Z,100938.00
2022-11-01T11:43:42.443Z,100932.28
2022-11-01T11:46:19.032Z,100931.44
2022-11-01T11:48:53.223Z,100942.34
2022-11-01T11:51:22.152Z,100932.78
2022-11-01T11:54:18.009Z,100934.44
2022-11-01T11:56:46.061Z,100938.50
2022-11-01T11:59:21.723Z,100945.00
2022-11-01T12:01:49.714Z,100940.81
2022-11-01T12:04:19.019Z,100947.38
2022-11-01T12:06:47.365Z,100946.38
2022-11-01T12:09:38.789Z,100950.03
2022-11-01T12:12:07.916Z,100956.91
2022-11-01T12:14:38.577Z,100947.88
2022-11-01T12:17:25.049Z,100953.56
2022-11-01T12:20:00.965Z,100950.03
2022-11-01T12:22:32.699Z,100953.91
2022-11-01T12:25:06.105Z,100960.59
2022-11-01T12:27:36.173Z,100954.91
2022-11-01T12:30:08.560Z,100954.41
2022-11-01T12:32:48.540Z,100954.22
2022-11-01T12:35:23.785Z,100963.97
2022-11-01T12:38:03.755Z,100957.63
2022-11-01T12:40:35.591Z,100962.78
2022-11-01T12:43:12.688Z,100961.44
2022-11-01T12:45:49.936Z,100970.16
2022-11-01T12:48:25.131Z,100959.44
2022-11-01T12:50:59.559Z,100965.31
2022-11-01T12:53:32.226Z,100962.44
2022-11-01T12:56:00.121Z,100964.63
2022-11-01T12:58:33.483Z,100964.63
2022-11-01T13:01:22.349Z,100968.16
2022-11-01T13:04:04.373Z,100964.97
2022-11-01T13:06:42.376Z,100969.84
2022-11-01T13:09:17.117Z,100971.69
2022-11-01T13:11:56.533Z,100979.56
2022-11-01T13:14:37.576Z,100972.69
2022-11-01T13:17:13.535Z,100970.69
2022-11-01T13:19:50.661Z,100971.88
2022-11-01T13:22:26.612Z,100957.41
2022-11-01T13:25:01.676Z,100958.44
2022-11-01T13:27:36.799Z,100961.78
2022-11-01T13:30:06.315Z,100969.00
2022-11-01T13:32:42.426Z,100959.94
2022-11-01T13:35:32.379Z,100955.06
2022-11-01T13:38:07.989Z,100952.53
2022-11-01T13:40:42.725Z,100960.75
2022-11-01T13:43:13.563Z,100960.75
2022-11-01T13:46:08.708Z,100959.59
2022-11-01T13:48:47.235Z,100971.69
2022-11-01T13:51:29.347Z,100966.31
2022-11-01T13:54:02.636Z,100970.84
2022-11-01T13:56:34.844Z,100967.00
2022-11-01T13:59:03.343Z,100976.72
2022-11-01T14:01:35.295Z,100967.16
2022-11-01T14:04:37.931Z,100964.66
2022-11-01T14:07:14.219Z,100969.03
2022-11-01T14:09:51.800Z,100979.25
2022-11-01T14:12:36.564Z,100974.22
2022-11-01T14:15:26.059Z,100970.03
2022-11-01T14:18:08.904Z,100972.53
2022-11-01T14:20:47.967Z,100971.38
2022-11-01T14:23:53.999Z,100975.59
2022-11-01T14:26:39.391Z,100975.59
2022-11-01T14:29:12.236Z,100971.53
2022-11-01T14:31:40.943Z,100969.34
2022-11-01T14:34:10.588Z,100965.66
2022-11-01T14:36:43.325Z,100965.16
2022-11-01T14:39:19.072Z,100965.31
2022-11-01T14:41:55.197Z,100969.50
2022-11-01T14:44:30.096Z,100967.00
2022-11-01T14:47:02.808Z,100966.50
2022-11-01T14:49:36.950Z,100967.00
2022-11-01T14:52:09.037Z,100969.34
2022-11-01T14:54:45.110Z,100973.03
2022-11-01T14:57:25.710Z,100977.22
2022-11-01T14:59:53.854Z,100972.50
2022-11-01T15:02:22.368Z,100970.50
2022-11-01T15:04:51.514Z,100970.00
2022-11-01T15:07:23.688Z,100976.69
2022-11-01T15:10:00.586Z,100978.00
2022-11-01T15:12:34.041Z,100978.50
2022-11-01T15:15:02.640Z,100977.00
2022-11-01T15:17:32.549Z,100977.16
2022-11-01T15:20:02.458Z,100974.97
2022-11-01T15:22:34.277Z,100980.09
2022-11-01T15:25:05.371Z,100978.44
2022-11-01T15:27:39.536Z,100970.88
2022-11-01T15:30:08.633Z,100976.53
2022-11-01T15:32:36.401Z,100983.41
2022-11-01T15:35:20.921Z,100982.91
2022-11-01T15:37:50.085Z,100973.66
2022-11-01T15:40:28.338Z,100974.13
2022-11-01T15:43:02.155Z,100976.31
2022-11-01T15:45:31.948Z,100972.75
2022-11-01T15:48:02.742Z,100983.25
2022-11-01T15:50:36.260Z,100985.56
2022-11-01T15:53:08.221Z,100985.91
2022-11-01T15:55:40.458Z,100985.69
2022-11-01T15:58:14.619Z,100985.16
2022-11-01T16:00:45.785Z,100991.47
2022-11-01T16:03:17.069Z,100992.47
2022-11-01T16:05:50.757Z,100994.41
2022-11-01T16:08:26.636Z,100989.53
2022-11-01T16:10:54.478Z,100990.16
2022-11-01T16:13:23.601Z,100988.94
2022-11-01T16:16:03.024Z,100990.41
2022-11-01T16:18:34.384Z,100991.00
2022-11-01T16:21:04.271Z,100999.66
2022-11-01T16:23:32.332Z,100993.91
2022-11-01T16:26:05.648Z,100988.34
2022-11-01T16:28:40.511Z,100995.66
2022-11-01T16:31:20.229Z,100991.41
2022-11-01T16:33:48.673Z,100994.16
2022-11-01T16:36:41.336Z,100988.00
2022-11-01T16:39:27.932Z,100997.66
2022-11-01T16:41:55.845Z,100998.53
2022-11-01T16:44:24.789Z,100996.78
2022-11-01T16:46:54.566Z,100998.22
2022-11-01T16:49:23.767Z,101000.50
2022-11-01T16:51:52.429Z,101008.25
2022-11-01T16:54:20.161Z,101009.84
2022-11-01T16:56:50.385Z,101015.06
2022-11-01T16:59:38.949Z,101003.03
2022-11-01T17:02:17.578Z,101012.22
2022-11-01T17:04:47.298Z,101006.75
2022-11-01T17:07:15.076Z,101017.19
2022-11-01T17:09:42.971Z,101014.22
2022-11-01T17:12:11.422Z,101018.47
2022-11-01T17:14:43.257Z,101023.69
2022-11-01T17:17:15.687Z,101027.91
2022-11-01T17:19:47.118Z,101024.09
2022-11-01T17:22:19.055Z,101023.72
2022-11-01T17:24:46.684Z,101023.41
2022-11-01T17:27:15.565Z,101025.69
2022-11-01T17:29:44.553Z,101021.59
2022-11-01T17:32:12.462Z,101035.09
2022-11-01T17:34:40.195Z,101026.53
2022-11-01T17:37:07.841Z,101033.00
2022-11-01T17:39:35.462Z,101038.44
2022-11-01T17:42:03.005Z,101044.22
2022-11-01T17:44:30.537Z,101043.34
2022-11-01T17:47:00.280Z,101050.41
2022-11-01T17:49:27.934Z,101040.69
2022-11-01T17:51:56.180Z,101045.47
2022-11-01T17:56:56.947Z,101043.91
2022-11-01T17:59:24.496Z,101049.53
2022-11-01T18:01:52.266Z,101056.00
2022-11-01T18:04:21.205Z,101051.78
2022-11-01T18:06:48.768Z,101051.06
2022-11-01T18:09:21.028Z,101053.84
2022-11-01T18:11:54.530Z,101053.84
2022-11-01T18:14:31.864Z,101054.59
2022-11-01T18:17:04.229Z,101057.41
2022-11-01T18:19:54.337Z,101056.25
2022-11-01T18:22:29.406Z,101055.56
2022-11-01T18:25:01.026Z,101061.00
2022-11-01T18:27:34.345Z,101064.81
2022-11-01T18:30:04.607Z,101067.63
2022-11-01T18:32:36.902Z,101076.63
2022-11-01T18:35:12.733Z,101067.63
2022-11-01T18:37:45.635Z,101078.56
2022-11-01T18:40:19.071Z,101071.81
2022-11-01T18:42:47.497Z,101064.81
2022-11-01T18:45:19.547Z,101066.50
2022-11-01T18:47:50.074Z,101074.34
2022-11-01T18:50:23.935Z,101065.81
2022-11-01T18:52:59.398Z,101067.63
2022-11-01T18:55:27.253Z,101064.66
2022-11-01T18:57:55.783Z,101069.03
2022-11-01T19:00:24.539Z,101056.66
2022-11-01T19:02:56.013Z,101060.75
2022-11-01T19:05:28.430Z,101064.41
2022-11-01T19:08:16.007Z,101070.59
2022-11-01T19:10:44.379Z,101078.28
2022-11-01T19:13:17.498Z,101076.75
2022-11-01T19:15:47.100Z,101073.81
2022-11-01T19:18:20.377Z,101067.63
2022-11-01T19:20:52.827Z,101063.13
2022-11-01T19:23:25.451Z,101069.44
2022-11-01T19:25:53.665Z,101070.44
2022-11-01T19:28:27.015Z,101073.81
2022-11-01T19:30:58.256Z,101070.28
2022-11-01T19:33:37.128Z,101072.69
2022-11-01T19:36:15.251Z,101067.50
2022-11-01T19:38:44.968Z,101067.50
2022-11-01T19:41:14.955Z,101072.00
2022-11-01T19:43:42.595Z,101063.84
2022-11-01T19:46:12.507Z,101064.69
2022-11-01T19:48:40.316Z,101056.69
2022-11-01T19:51:17.630Z,101062.28
2022-11-01T19:53:46.030Z,101061.03
2022-11-01T19:56:17.153Z,101063.03
2022-11-01T19:58:48.761Z,101066.66
2022-11-01T20:01:43.065Z,101064.84
2022-11-01T20:04:24.460Z,101071.28
2022-11-01T20:07:00.925Z,101069.44
2022-11-01T20:09:30.157Z,101056.41
2022-11-01T20:11:57.760Z,101061.84
2022-11-01T20:14:25.388Z,101061.00
2022-11-01T20:16:53.097Z,101067.19
2022-11-01T20:19:21.770Z,101060.19
2022-11-01T20:21:49.378Z,101066.22
2022-11-01T20:24:18.308Z,101063.56
2022-11-01T20:26:46.288Z,101067.63
2022-11-01T20:29:14.427Z,101062.44
2022-11-01T20:31:42.015Z,101065.94
2022-11-01T20:34:10.109Z,101064.00
2022-11-01T20:36:38.511Z,101064.69
2022-11-01T20:39:08.160Z,101065.38
2022-11-01T20:41:39.358Z,101060.06
2022-11-01T20:44:06.885Z,101064.69
2022-11-01T20:46:34.596Z,101062.72
2022-11-01T20:49:02.125Z,101063.44
2022-11-01T20:51:30.192Z,101053.72
2022-11-01T20:53:58.169Z,101061.19
2022-11-01T20:56:25.859Z,101057.13
2022-11-01T20:58:55.872Z,101059.38
2022-11-01T21:01:23.637Z,101067.38
2022-11-01T21:03:53.155Z,101052.19
2022-11-01T21:06:22.614Z,101060.06
2022-11-01T21:08:50.345Z,101057.53
2022-11-01T21:11:25.038Z,101054.03
2022-11-01T21:13:52.805Z,101050.13
2022-11-01T21:16:28.910Z,101045.19
2022-11-01T21:19:02.113Z,101046.88
2022-11-01T21:21:35.206Z,101053.34
2022-11-01T21:24:36.160Z,101057.81
2022-11-01T21:27:22.387Z,101049.25
2022-11-01T21:29:51.624Z,101050.94
2022-11-01T21:32:29.817Z,101051.78
2022-11-01T21:34:57.843Z,101048.13
2022-11-01T21:37:29.186Z,101056.13
2022-11-01T21:40:04.873Z,101055.84
2022-11-01T21:42:35.394Z,101054.03
2022-11-01T21:45:25.338Z,101051.94
2022-11-01T21:47:54.609Z,101049.56
2022-11-01T21:50:22.126Z,101051.34
2022-11-01T21:52:49.675Z,101035.50
2022-11-01T21:55:17.301Z,101042.41
2022-11-01T21:57:44.812Z,101051.50
2022-11-01T22:00:15.330Z,101034.66
2022-11-01T22:02:43.028Z,101040.97
2022-11-01T22:05:12.052Z,101029.31
2022-11-01T22:07:39.871Z,101030.31
2022-11-01T22:10:08.247Z,101034.81
2022-11-01T22:12:35.879Z,101033.81
2022-11-01T22:15:03.584Z,101029.63
2022-11-01T22:17:31.404Z,101035.78
2022-11-01T22:19:58.920Z,101024.97
2022-11-01T22:22:27.793Z,101016.13
2022-11-01T22:24:55.338Z,101029.47
2022-11-01T22:27:22.856Z,101019.63
2022-11-01T22:29:50.496Z,101017.81
2022-11-01T22:32:19.185Z,101018.66
2022-11-01T22:34:46.779Z,101016.56
2022-11-01T22:37:14.511Z,101019.22
2022-11-01T22:39:43.384Z,101012.59
2022-11-01T22:42:13.075Z,101018.94
2022-11-01T22:44:42.896Z,101002.94
2022-11-01T22:47:19.744Z,100999.56
2022-11-01T22:49:52.275Z,100995.06
2022-11-01T22:52:30.073Z,101003.22
2022-11-01T22:55:04.520Z,100998.16
2022-11-01T22:57:35.473Z,101001.53
2022-11-01T23:00:31.419Z,101001.25
2022-11-01T23:03:11.359Z,101003.91
2022-11-01T23:05:39.141Z,100997.75
2022-11-01T23:08:20.110Z,100985.94
2022-11-01T23:10:51.328Z,100991.16
2022-11-01T23:13:42.188Z,100990.00
2022-11-01T23:16:21.955Z,100988.19
2022-11-01T23:18:50.396Z,100993.38
2022-11-01T23:21:19.406Z,100990.28
2022-11-01T23:23:48.084Z,100980.19
2022-11-01T23:26:18.537Z,100980.03
2022-11-01T23:28:48.876Z,100980.44
2022-11-01T23:31:17.681Z,100974.44
2022-11-01T23:33:46.953Z,100977.63
2022-11-01T23:36:19.436Z,100974.97
2022-11-01T23:38:49.508Z,100977.22
2022-11-01T23:41:22.842Z,100969.19
2022-11-01T23:43:52.932Z,100971.88
2022-11-01T23:46:20.828Z,100976.06
2022-11-01T23:48:48.979Z,100963.28
2022-11-01T23:51:20.926Z,100958.94
2022-11-01T23:53:49.608Z,100956.81
2022-11-01T23:56:21.177Z,100954.13
2022-11-01T23:59:03.975Z,100954.28
